Jacobabad Weather



Jacobabad's Current Weather

Temprature 32.35o clear sky

clear sky

Rain: 0 %

Min Temprature32.35o
Max Temprature32.35o
Humidity46
Wind Speed5.5 m/h
Sun Rise05:59:58
Sun Set18:58:29
Current Time: 23-Aug-2019 05:32:14
Lat/Lon: 28.29, 68.44




Jacobabad's Geo Location



Jacobabad's Weather Forecast

Time Overall Temp Min Temp Max Temp Humidity Wind Speed Rain
23-Aug-2019 (Fri)
08:00:00 clear sky 31.920 31.917 31.920 50 3.95 m/h 0 %
11:00:00 clear sky 38.550 38.550 38.550 29 2.33 m/h 0 %
14:00:00 clear sky 42.630 42.630 42.631 18 2.37 m/h 0 %
17:00:00 clear sky 43.510 43.510 43.511 12 3.15 m/h 0 %
20:00:00 clear sky 40.350 40.350 40.350 15 1.59 m/h 0 %
23:00:00 clear sky 37.042 37.042 37.042 23 7.33 m/h 0 %
24-Aug-2019 (Sat)
02:00:00 clear sky 34.731 34.731 34.731 36 7.41 m/h 0 %
05:00:00 clear sky 32.455 32.455 32.455 43 4.52 m/h 0 %
08:00:00 clear sky 32.717 32.717 32.717 48 3.44 m/h 0 %
11:00:00 clear sky 37.869 37.869 37.869 32 0.93 m/h 0 %
14:00:00 clear sky 42.369 42.369 42.369 20 2.11 m/h 0 %
17:00:00 clear sky 43.923 43.923 43.923 14 3.96 m/h 0 %
20:00:00 clear sky 39.750 39.750 39.750 19 4.87 m/h 0 %
23:00:00 few clouds 37.169 37.169 37.169 25 7.58 m/h 0 %
25-Aug-2019 (Sun)
02:00:00 clear sky 34.231 34.231 34.231 44 7.09 m/h 0 %
05:00:00 clear sky 31.757 31.757 31.757 48 5.25 m/h 0 %
08:00:00 clear sky 31.914 31.914 31.914 48 3.71 m/h 0 %
11:00:00 clear sky 37.116 37.116 37.116 30 1.38 m/h 0 %
14:00:00 clear sky 41.250 41.250 41.250 20 1.27 m/h 0 %
17:00:00 clear sky 42.950 42.950 42.950 16 2.38 m/h 0 %
20:00:00 clear sky 40.181 40.181 40.181 20 3.95 m/h 0 %
23:00:00 clear sky 36.511 36.511 36.511 30 8.15 m/h 0 %
26-Aug-2019 (Mon)
02:00:00 clear sky 33.865 33.865 33.865 47 6.38 m/h 0 %
05:00:00 clear sky 32.450 32.450 32.450 48 5.02 m/h 0 %
08:00:00 clear sky 32.767 32.767 32.767 44 3.39 m/h 0 %
11:00:00 clear sky 38.272 38.272 38.272 26 0.57 m/h 0 %
14:00:00 clear sky 41.984 41.984 41.984 19 1.08 m/h 0 %
17:00:00 clear sky 43.420 43.420 43.420 15 2 m/h 0 %
20:00:00 clear sky 40.472 40.472 40.472 19 0.71 m/h 0 %
23:00:00 few clouds 37.914 37.914 37.914 25 6.72 m/h 0 %
27-Aug-2019 (Tue)
02:00:00 overcast clouds 36.416 36.416 36.416 30 4.59 m/h 0 %
05:00:00 overcast clouds 34.050 34.050 34.050 39 2.69 m/h 0 %
08:00:00 overcast clouds 35.135 35.135 35.135 38 2.35 m/h 0 %
11:00:00 overcast clouds 41.036 41.036 41.036 22 2.08 m/h 0 %
14:00:00 overcast clouds 44.636 44.636 44.636 13 2.94 m/h 0 %
17:00:00 overcast clouds 44.765 44.765 44.765 12 2.16 m/h 0 %
20:00:00 overcast clouds 42.150 42.150 42.150 14 2.69 m/h 0 %
23:00:00 overcast clouds 37.950 37.950 37.950 24 5.12 m/h 0 %
28-Aug-2019 (Wed)
02:00:00 clear sky 36.157 36.157 36.157 28 2.95 m/h 0 %
05:00:00 scattered clouds 35.572 35.572 35.572 30 3.54 m/h 0 %

Famous Cities (61)